createdAt,value
2018-12-02T00:00:56.789Z,16.70
2018-12-02T00:01:56.762Z,14.80
2018-12-02T00:02:56.753Z,17.30
2018-12-02T00:03:56.747Z,15.60
2018-12-02T00:04:56.760Z,15.80
2018-12-02T00:05:56.723Z,15.70
2018-12-02T00:06:56.707Z,16.60
2018-12-02T00:07:56.698Z,15.60
2018-12-02T00:08:56.692Z,16.20
2018-12-02T00:09:56.701Z,16.60
2018-12-02T00:10:56.676Z,16.20
2018-12-02T00:11:56.655Z,16.60
2018-12-02T00:12:56.659Z,15.80
2018-12-02T00:13:56.629Z,15.30
2018-12-02T00:14:56.668Z,16.50
2018-12-02T00:15:56.613Z,16.20
2018-12-02T00:16:56.603Z,15.80
2018-12-02T00:17:56.603Z,15.50
2018-12-02T00:18:56.593Z,15.80
2018-12-02T00:19:56.610Z,15.60
2018-12-02T00:20:56.566Z,15.40
2018-12-02T00:21:56.549Z,17.10
2018-12-02T00:22:56.539Z,15.60
2018-12-02T00:23:56.539Z,15.60
2018-12-02T00:24:56.561Z,15.60
2018-12-02T00:25:56.511Z,16.00
2018-12-02T00:26:56.507Z,15.40
2018-12-02T00:27:56.487Z,16.60
2018-12-02T00:28:56.473Z,16.40
2018-12-02T00:29:56.548Z,16.90
2018-12-02T00:30:56.454Z,16.40
2018-12-02T00:31:56.501Z,16.40
2018-12-02T00:32:56.440Z,16.20
2018-12-02T00:33:56.426Z,15.70
2018-12-02T00:34:56.408Z,15.60
2018-12-02T00:35:56.421Z,16.80
2018-12-02T00:36:56.407Z,16.00
2018-12-02T00:37:56.380Z,15.60
2018-12-02T00:38:56.368Z,16.20
2018-12-02T00:39:56.371Z,15.90
2018-12-02T00:40:56.373Z,15.60
2018-12-02T00:41:56.350Z,16.00
2018-12-02T00:42:56.332Z,15.40
2018-12-02T00:43:56.322Z,14.90
2018-12-02T00:44:56.326Z,13.50
2018-12-02T00:45:56.320Z,15.30
2018-12-02T00:46:56.283Z,17.10
2018-12-02T00:47:56.281Z,14.90
2018-12-02T00:48:56.260Z,16.10
2018-12-02T00:49:56.259Z,15.50
2018-12-02T00:50:56.262Z,16.50
2018-12-02T00:51:56.889Z,15.60
2018-12-02T00:52:56.228Z,15.70
2018-12-02T00:53:56.225Z,15.60
2018-12-02T00:54:56.210Z,15.60
2018-12-02T00:55:56.251Z,16.10
2018-12-02T00:56:56.178Z,15.70
2018-12-02T00:57:56.167Z,14.20
2018-12-02T00:58:56.162Z,14.80
2018-12-02T00:59:56.161Z,15.00
2018-12-02T01:00:56.178Z,15.00
2018-12-02T01:01:56.135Z,15.20
2018-12-02T01:02:56.112Z,15.30
2018-12-02T01:03:56.104Z,14.50
2018-12-02T01:04:56.100Z,15.20
2018-12-02T01:05:56.106Z,15.20
2018-12-02T01:06:56.130Z,14.80
2018-12-02T01:07:56.062Z,14.90
2018-12-02T01:08:56.054Z,15.10
2018-12-02T01:09:56.037Z,14.00
2018-12-02T01:10:56.053Z,15.40
2018-12-02T01:11:56.023Z,15.40
2018-12-02T01:12:56.011Z,15.40
2018-12-02T01:13:55.997Z,15.70
2018-12-02T01:14:55.985Z,14.00
2018-12-02T01:15:56.011Z,15.00
2018-12-02T01:16:55.986Z,13.10
2018-12-02T01:17:55.955Z,14.40
2018-12-02T01:18:56.000Z,14.70
2018-12-02T01:19:55.935Z,14.50
2018-12-02T01:20:55.931Z,13.70
2018-12-02T01:21:55.934Z,14.30
2018-12-02T01:22:55.904Z,14.20
2018-12-02T01:23:55.899Z,14.20
2018-12-02T01:24:55.891Z,15.00
2018-12-02T01:25:55.875Z,12.90
2018-12-02T01:26:55.877Z,14.20
2018-12-02T01:27:55.854Z,14.70
2018-12-02T01:28:55.849Z,15.60
2018-12-02T01:29:55.837Z,15.00
2018-12-02T01:30:55.815Z,14.70
2018-12-02T01:31:55.816Z,13.90
2018-12-02T01:32:55.812Z,13.90
2018-12-02T01:33:55.792Z,14.50
2018-12-02T01:34:55.783Z,15.00
2018-12-02T01:35:55.771Z,14.70
2018-12-02T01:36:55.771Z,14.90
2018-12-02T01:37:55.749Z,14.60
2018-12-02T01:38:55.748Z,14.00
2018-12-02T01:39:55.728Z,12.60
2018-12-02T01:40:55.721Z,15.00
2018-12-02T01:41:55.727Z,14.30
2018-12-02T01:42:55.694Z,14.10
2018-12-02T01:43:55.679Z,14.00
2018-12-02T01:44:55.673Z,14.30
2018-12-02T01:45:55.662Z,13.60
2018-12-02T01:46:55.680Z,13.50
2018-12-02T01:47:55.647Z,13.90
2018-12-02T01:48:55.631Z,14.70
2018-12-02T01:49:55.615Z,14.00
2018-12-02T01:50:55.608Z,13.40
2018-12-02T01:51:55.618Z,13.70
2018-12-02T01:52:55.592Z,14.60
2018-12-02T01:53:55.581Z,14.10
2018-12-02T01:54:55.564Z,15.10
2018-12-02T01:55:55.562Z,13.20
2018-12-02T01:56:55.577Z,14.70
2018-12-02T01:57:55.532Z,14.70
2018-12-02T01:58:55.531Z,14.30
2018-12-02T01:59:55.528Z,14.10
2018-12-02T02:00:55.505Z,14.20
2018-12-02T02:01:55.515Z,13.60
2018-12-02T02:02:55.483Z,14.20
2018-12-02T02:03:55.472Z,12.30
2018-12-02T02:04:55.466Z,13.90
2018-12-02T02:05:55.449Z,14.30
2018-12-02T02:06:55.434Z,13.90
2018-12-02T02:07:55.449Z,14.60
2018-12-02T02:08:55.417Z,14.60
2018-12-02T02:09:55.407Z,14.40
2018-12-02T02:10:55.394Z,13.60
2018-12-02T02:11:55.381Z,14.40
2018-12-02T02:12:55.409Z,13.30
2018-12-02T02:13:55.381Z,13.80
2018-12-02T02:14:55.359Z,13.80
2018-12-02T02:15:55.347Z,13.10
2018-12-02T02:16:55.331Z,13.90
2018-12-02T02:17:55.345Z,13.40
2018-12-02T02:18:55.309Z,14.30
2018-12-02T02:19:55.299Z,13.30
2018-12-02T02:20:55.293Z,13.00
2018-12-02T02:21:55.286Z,13.70
2018-12-02T02:22:55.292Z,13.40
2018-12-02T02:23:55.284Z,13.40
2018-12-02T02:24:55.249Z,13.00
2018-12-02T02:26:56.357Z,13.00
2018-12-02T02:27:55.239Z,12.80
2018-12-02T02:28:55.218Z,12.70
2018-12-02T02:29:55.193Z,13.50
2018-12-02T02:30:55.182Z,12.20
2018-12-02T02:31:55.176Z,12.50
2018-12-02T02:32:55.198Z,13.30
2018-12-02T02:33:55.200Z,12.70
2018-12-02T02:34:55.144Z,13.50
2018-12-02T02:35:55.133Z,13.60
2018-12-02T02:36:55.116Z,12.40
2018-12-02T02:37:55.139Z,12.70
2018-12-02T02:38:55.106Z,13.10
2018-12-02T02:39:55.100Z,14.40
2018-12-02T02:40:55.082Z,13.10
2018-12-02T02:41:55.064Z,14.20
2018-12-02T02:42:55.074Z,14.00
2018-12-02T02:43:55.050Z,13.20
2018-12-02T02:44:55.044Z,14.60
2018-12-02T02:45:55.044Z,13.70
2018-12-02T02:46:55.012Z,13.00
2018-12-02T02:47:55.053Z,14.10
2018-12-02T02:48:54.997Z,12.90
2018-12-02T02:49:54.981Z,13.50
2018-12-02T02:50:54.986Z,13.40
2018-12-02T02:51:54.982Z,13.10
2018-12-02T02:52:54.997Z,13.60
2018-12-02T02:53:54.944Z,13.90
2018-12-02T02:54:54.938Z,13.40
2018-12-02T02:55:54.920Z,13.20
2018-12-02T02:56:54.908Z,12.60
2018-12-02T02:57:54.930Z,13.90
2018-12-02T02:58:54.888Z,13.40
2018-12-02T02:59:54.877Z,13.50
2018-12-02T03:00:54.866Z,13.60
2018-12-02T03:01:54.857Z,12.80
2018-12-02T03:02:54.867Z,13.40
2018-12-02T03:03:54.833Z,13.50
2018-12-02T03:04:54.827Z,12.90
2018-12-02T03:05:54.811Z,12.70
2018-12-02T03:06:55.403Z,12.50
2018-12-02T03:07:54.811Z,13.00
2018-12-02T03:08:54.835Z,12.80
2018-12-02T03:09:54.772Z,11.90
2018-12-02T03:10:54.762Z,12.80
2018-12-02T03:11:54.752Z,12.50
2018-12-02T03:12:54.773Z,12.50
2018-12-02T03:13:54.746Z,12.90
2018-12-02T03:14:54.730Z,12.90
2018-12-02T03:15:54.707Z,12.20
2018-12-02T03:16:54.693Z,13.20
2018-12-02T03:17:54.732Z,12.60
2018-12-02T03:18:54.698Z,13.00
2018-12-02T03:19:54.698Z,12.60
2018-12-02T03:20:54.675Z,13.80
2018-12-02T03:21:54.645Z,13.60
2018-12-02T03:22:54.682Z,12.70
2018-12-02T03:23:54.624Z,12.50
2018-12-02T03:24:54.610Z,12.30
2018-12-02T03:25:54.612Z,12.50
2018-12-02T03:26:54.607Z,12.30
2018-12-02T03:27:54.632Z,12.30
2018-12-02T03:28:54.578Z,12.30
2018-12-02T03:29:54.563Z,12.30
2018-12-02T03:30:54.550Z,12.50
2018-12-02T03:31:54.552Z,12.00
2018-12-02T03:32:54.554Z,11.80
2018-12-02T03:33:54.554Z,12.80
2018-12-02T03:34:54.508Z,11.70
2018-12-02T03:35:54.505Z,12.40
2018-12-02T03:36:54.491Z,12.50
2018-12-02T03:37:54.485Z,12.00
2018-12-02T03:38:54.493Z,13.00
2018-12-02T03:39:54.454Z,11.80
2018-12-02T03:40:54.447Z,11.90
2018-12-02T03:41:54.426Z,12.30
2018-12-02T03:42:54.449Z,12.10
2018-12-02T03:43:54.436Z,11.70
2018-12-02T03:44:54.402Z,11.50
2018-12-02T03:45:54.387Z,12.80
2018-12-02T03:46:54.381Z,12.40
2018-12-02T03:47:54.372Z,11.60
2018-12-02T03:48:54.382Z,11.50
2018-12-02T03:49:54.347Z,12.10
2018-12-02T03:50:54.331Z,12.00
2018-12-02T03:51:54.329Z,11.30
2018-12-02T03:52:54.313Z,11.70
2018-12-02T03:53:54.339Z,12.60
2018-12-02T03:54:54.316Z,12.20
2018-12-02T03:55:54.279Z,11.60
2018-12-02T03:56:54.271Z,11.90
2018-12-02T03:57:54.262Z,12.50
2018-12-02T03:58:54.270Z,12.60
2018-12-02T03:59:54.241Z,11.60
2018-12-02T04:00:54.234Z,11.70
2018-12-02T04:01:54.216Z,11.70
2018-12-02T04:02:54.207Z,11.90
2018-12-02T04:03:54.216Z,12.30
2018-12-02T04:04:54.192Z,12.10
2018-12-02T04:05:54.180Z,12.10
2018-12-02T04:06:54.172Z,10.80
2018-12-02T04:07:54.157Z,11.90
2018-12-02T04:08:54.159Z,21.70
2018-12-02T04:09:54.129Z,12.30
2018-12-02T04:10:54.926Z,12.20
2018-12-02T04:11:54.121Z,11.20
2018-12-02T04:12:54.115Z,11.50
2018-12-02T04:13:54.127Z,11.60
2018-12-02T04:14:54.078Z,11.30
2018-12-02T04:15:54.068Z,11.60
2018-12-02T04:16:54.056Z,11.40
2018-12-02T04:17:54.059Z,11.30
2018-12-02T04:18:54.057Z,11.90
2018-12-02T04:19:54.054Z,11.30
2018-12-02T04:20:54.029Z,11.10
2018-12-02T04:21:54.012Z,11.70
2018-12-02T04:22:53.993Z,12.30
2018-12-02T04:23:53.994Z,11.80
2018-12-02T04:24:54.000Z,11.40
2018-12-02T04:25:53.963Z,11.50
2018-12-02T04:26:54.002Z,11.90
2018-12-02T04:27:53.949Z,12.30
2018-12-02T04:28:53.934Z,12.30
2018-12-02T04:29:53.942Z,12.60
2018-12-02T04:30:53.930Z,11.60
2018-12-02T04:31:53.901Z,11.60
2018-12-02T04:32:53.889Z,11.60
2018-12-02T04:33:53.882Z,11.80
2018-12-02T04:34:53.888Z,11.80
2018-12-02T04:35:53.869Z,11.10
2018-12-02T04:36:53.849Z,11.90
2018-12-02T04:37:53.837Z,12.10
2018-12-02T04:38:53.826Z,12.30
2018-12-02T04:39:53.851Z,12.30
2018-12-02T04:40:53.811Z,12.10
2018-12-02T04:41:53.797Z,12.00
2018-12-02T04:42:53.780Z,12.50
2018-12-02T04:43:53.773Z,12.00
2018-12-02T04:44:53.776Z,11.80
2018-12-02T04:45:53.753Z,11.90
2018-12-02T04:46:53.753Z,12.60
2018-12-02T04:47:53.751Z,12.80
2018-12-02T04:48:53.724Z,12.10
2018-12-02T04:49:53.725Z,12.20
2018-12-02T04:50:53.706Z,12.30
2018-12-02T04:51:53.694Z,12.40
2018-12-02T04:52:53.695Z,12.30
2018-12-02T04:53:53.668Z,12.40
2018-12-02T04:54:53.689Z,12.10
2018-12-02T04:55:53.644Z,12.00
2018-12-02T04:56:53.640Z,12.10
2018-12-02T04:57:53.623Z,12.20
2018-12-02T04:58:53.619Z,12.00
2018-12-02T04:59:53.630Z,12.40
2018-12-02T05:00:53.589Z,11.70
2018-12-02T05:01:53.583Z,12.40
2018-12-02T05:02:53.570Z,12.90
2018-12-02T05:03:53.577Z,12.10
2018-12-02T05:04:53.595Z,13.10
2018-12-02T05:05:53.549Z,12.00
2018-12-02T05:06:53.530Z,12.10
2018-12-02T05:07:53.529Z,12.30
2018-12-02T05:08:53.531Z,11.80
2018-12-02T05:09:53.504Z,12.90
2018-12-02T05:10:53.511Z,12.80
2018-12-02T05:11:53.474Z,12.30
2018-12-02T05:12:53.469Z,12.20
2018-12-02T05:13:53.455Z,11.50
2018-12-02T05:14:53.461Z,13.00
2018-12-02T05:15:53.467Z,11.90
2018-12-02T05:16:53.423Z,11.30
2018-12-02T05:17:53.415Z,11.00
2018-12-02T05:18:53.401Z,12.00
2018-12-02T05:19:53.395Z,12.20
2018-12-02T05:20:53.405Z,11.70
2018-12-02T05:21:53.373Z,11.20
2018-12-02T05:22:53.364Z,11.60
2018-12-02T05:23:53.350Z,11.40
2018-12-02T05:24:53.341Z,11.40
2018-12-02T05:25:53.343Z,11.60
2018-12-02T05:26:53.321Z,11.30
2018-12-02T05:27:53.322Z,11.50
2018-12-02T05:28:53.302Z,11.60
2018-12-02T05:29:53.289Z,11.60
2018-12-02T05:30:53.300Z,11.40
2018-12-02T05:31:53.263Z,11.10
2018-12-02T05:32:53.262Z,11.70
2018-12-02T05:33:53.250Z,10.70
2018-12-02T05:34:53.241Z,11.10
2018-12-02T05:35:53.255Z,11.50
2018-12-02T05:36:53.213Z,11.60
2018-12-02T05:37:53.205Z,11.60
2018-12-02T05:38:53.191Z,11.30
2018-12-02T05:39:53.189Z,11.40
2018-12-02T05:40:53.197Z,10.90
2018-12-02T05:41:53.153Z,11.80
2018-12-02T05:42:53.149Z,11.20
2018-12-02T05:43:53.135Z,11.90
2018-12-02T05:44:53.137Z,11.30
2018-12-02T05:45:53.134Z,10.40
2018-12-02T05:46:53.105Z,11.00
2018-12-02T05:47:53.105Z,11.50
2018-12-02T05:48:53.087Z,11.40
2018-12-02T05:49:53.076Z,12.00
2018-12-02T05:50:53.083Z,10.90
2018-12-02T05:51:53.061Z,11.60
2018-12-02T05:52:53.039Z,11.80
2018-12-02T05:53:53.025Z,11.20
2018-12-02T05:54:53.020Z,10.30
2018-12-02T05:55:53.025Z,11.10
2018-12-02T05:56:53.013Z,10.80
2018-12-02T05:57:52.991Z,12.30
2018-12-02T05:58:52.981Z,11.60
2018-12-02T05:59:52.967Z,10.90
2018-12-02T06:00:52.959Z,12.00
2018-12-02T06:01:52.965Z,11.10
2018-12-02T06:02:52.942Z,10.70
2018-12-02T06:03:52.937Z,11.40
2018-12-02T06:04:52.913Z,10.20
2018-12-02T06:05:52.945Z,11.70
2018-12-02T06:06:52.891Z,11.60
2018-12-02T06:07:52.900Z,11.00
2018-12-02T06:08:52.873Z,10.70
2018-12-02T06:09:52.861Z,12.30
2018-12-02T06:10:52.847Z,10.80
2018-12-02T06:11:52.845Z,11.90
2018-12-02T06:12:52.847Z,11.20
2018-12-02T06:13:52.841Z,11.20
2018-12-02T06:14:52.809Z,11.20
2018-12-02T06:15:52.832Z,11.30
2018-12-02T06:16:52.849Z,11.50
2018-12-02T06:17:52.825Z,11.00
2018-12-02T06:18:52.767Z,11.40
2018-12-02T06:19:52.761Z,10.90
2018-12-02T06:20:52.752Z,11.60
2018-12-02T06:21:52.737Z,11.10
2018-12-02T06:22:52.761Z,11.00
2018-12-02T06:23:52.711Z,11.70
2018-12-02T06:24:52.702Z,10.80
2018-12-02T06:25:52.695Z,11.20
2018-12-02T06:26:52.687Z,11.00
2018-12-02T06:27:52.691Z,11.20
2018-12-02T06:28:52.667Z,11.30
2018-12-02T06:29:52.651Z,11.10
2018-12-02T06:30:52.646Z,10.70
2018-12-02T06:31:52.643Z,10.30
2018-12-02T06:32:52.642Z,10.90
2018-12-02T06:33:52.651Z,11.20
2018-12-02T06:34:52.597Z,10.90
2018-12-02T06:35:52.587Z,10.70
2018-12-02T06:36:52.602Z,9.90
2018-12-02T06:37:52.585Z,10.30
2018-12-02T06:38:52.553Z,10.90
2018-12-02T06:39:52.542Z,11.10
2018-12-02T06:40:52.538Z,10.40
2018-12-02T06:41:52.543Z,10.70
2018-12-02T06:42:52.511Z,10.60
2018-12-02T06:43:52.533Z,10.30
2018-12-02T06:44:52.502Z,10.60
2018-12-02T06:45:52.476Z,11.00
2018-12-02T06:46:52.473Z,11.50
2018-12-02T06:47:52.459Z,10.10
2018-12-02T06:48:52.466Z,10.90
2018-12-02T06:49:52.439Z,11.20
2018-12-02T06:50:52.435Z,10.60
2018-12-02T06:51:52.435Z,11.20
2018-12-02T06:52:52.405Z,10.70
2018-12-02T06:53:52.399Z,10.70
2018-12-02T06:54:52.409Z,10.80
2018-12-02T06:55:52.371Z,10.70
2018-12-02T06:56:52.367Z,10.10
2018-12-02T06:57:52.358Z,11.00
2018-12-02T06:58:52.341Z,10.20
2018-12-02T06:59:52.356Z,10.40
2018-12-02T07:00:52.323Z,11.10
2018-12-02T07:01:52.328Z,11.10
2018-12-02T07:02:52.311Z,10.10
2018-12-02T07:03:52.289Z,11.10
2018-12-02T07:04:52.281Z,10.60
2018-12-02T07:05:52.271Z,11.10
2018-12-02T07:06:52.285Z,11.10
2018-12-02T07:07:52.251Z,11.00
2018-12-02T07:08:52.234Z,11.40
2018-12-02T07:09:52.232Z,11.20
2018-12-02T07:10:52.235Z,10.80
2018-12-02T07:11:59.504Z,11.70
2018-12-02T07:12:52.195Z,11.90
2018-12-02T07:13:52.190Z,10.40
2018-12-02T07:14:52.172Z,10.30
2018-12-02T07:15:52.158Z,10.80
2018-12-02T07:16:52.171Z,10.10
2018-12-02T07:17:52.162Z,11.40
2018-12-02T07:18:52.128Z,10.80
2018-12-02T07:19:52.121Z,10.60
2018-12-02T07:20:52.111Z,10.50
2018-12-02T07:21:52.149Z,11.10
2018-12-02T07:22:52.092Z,11.90
2018-12-02T07:23:52.087Z,10.90
2018-12-02T07:24:52.069Z,10.70
2018-12-02T07:25:52.060Z,11.00
2018-12-02T07:26:52.071Z,10.10
2018-12-02T07:27:52.034Z,10.00
2018-12-02T07:28:52.028Z,10.80
2018-12-02T07:29:52.032Z,11.60
2018-12-02T07:30:52.008Z,10.30
2018-12-02T07:31:52.029Z,10.50
2018-12-02T07:32:52.008Z,11.00
2018-12-02T07:33:51.975Z,10.30
2018-12-02T07:34:51.968Z,11.00
2018-12-02T07:35:51.974Z,10.80
2018-12-02T07:36:51.977Z,10.70
2018-12-02T07:37:51.945Z,10.10
2018-12-02T07:38:51.938Z,10.50
2018-12-02T07:39:51.929Z,10.80
2018-12-02T07:40:51.906Z,10.50
2018-12-02T07:41:51.910Z,10.10
2018-12-02T07:42:51.889Z,11.00
2018-12-02T07:43:51.876Z,10.80
2018-12-02T07:44:51.867Z,10.70
2018-12-02T07:45:51.848Z,9.90
2018-12-02T07:46:51.848Z,10.00
2018-12-02T07:47:51.851Z,10.00
2018-12-02T07:48:51.818Z,10.20
2018-12-02T07:49:51.812Z,10.50
2018-12-02T07:50:51.806Z,10.00
2018-12-02T07:51:51.785Z,10.00
2018-12-02T07:52:51.793Z,9.50
2018-12-02T07:53:51.754Z,10.90
2018-12-02T07:54:51.758Z,10.80
2018-12-02T07:55:51.751Z,10.50
2018-12-02T07:56:51.730Z,10.40
2018-12-02T07:57:51.736Z,10.20
2018-12-02T07:58:51.710Z,11.40
2018-12-02T07:59:51.698Z,10.50
2018-12-02T08:00:51.694Z,10.70
2018-12-02T08:01:51.699Z,10.40
2018-12-02T08:02:51.710Z,10.40
2018-12-02T08:03:51.658Z,10.60
2018-12-02T08:04:51.646Z,9.70
2018-12-02T08:05:51.630Z,10.60
2018-12-02T08:06:51.617Z,10.60
2018-12-02T08:07:51.632Z,10.30
2018-12-02T08:08:51.708Z,10.40
2018-12-02T08:09:51.596Z,10.40
2018-12-02T08:10:51.584Z,9.40
2018-12-02T08:11:51.568Z,9.90
2018-12-02T08:12:51.572Z,10.40
2018-12-02T08:13:51.577Z,10.00
2018-12-02T08:14:51.539Z,9.90
2018-12-02T08:15:51.556Z,10.20
2018-12-02T08:16:51.525Z,9.60
2018-12-02T08:17:51.507Z,10.40
2018-12-02T08:18:51.512Z,9.80
2018-12-02T08:19:51.508Z,10.40
2018-12-02T08:20:51.478Z,9.70
2018-12-02T08:21:51.465Z,10.60
2018-12-02T08:22:51.763Z,10.40
2018-12-02T08:23:51.463Z,9.70
2018-12-02T08:24:51.438Z,10.40
2018-12-02T08:25:51.417Z,9.80
2018-12-02T08:26:51.408Z,9.90
2018-12-02T08:27:51.395Z,10.00
2018-12-02T08:28:51.475Z,10.20
2018-12-02T08:29:51.376Z,9.70
2018-12-02T08:30:51.385Z,10.30
2018-12-02T08:31:51.354Z,9.50
2018-12-02T08:32:51.350Z,9.00
2018-12-02T08:33:51.333Z,9.40
2018-12-02T08:34:51.386Z,9.60
2018-12-02T08:35:51.315Z,9.90
2018-12-02T08:36:51.302Z,9.40
2018-12-02T08:37:51.296Z,9.70
2018-12-02T08:38:51.287Z,9.90
2018-12-02T08:39:51.280Z,10.90
2018-12-02T08:40:51.254Z,10.40
2018-12-02T08:41:51.247Z,9.60
2018-12-02T08:42:51.256Z,10.30
2018-12-02T08:43:51.234Z,11.30
2018-12-02T08:44:51.239Z,19.80
2018-12-02T08:45:51.213Z,15.90
2018-12-02T08:46:51.206Z,11.50
2018-12-02T08:47:51.198Z,11.20
2018-12-02T08:48:51.167Z,9.90
2018-12-02T08:49:51.179Z,10.40
2018-12-02T08:50:51.153Z,10.20
2018-12-02T08:51:51.152Z,10.70
2018-12-02T08:52:51.131Z,9.80
2018-12-02T08:53:51.130Z,9.90
2018-12-02T08:54:51.138Z,9.20
2018-12-02T08:55:51.103Z,9.70
2018-12-02T08:56:51.090Z,9.80
2018-12-02T08:57:51.077Z,9.40
2018-12-02T08:58:51.072Z,10.20
2018-12-02T08:59:51.074Z,9.90
2018-12-02T09:00:51.053Z,9.50
2018-12-02T09:01:51.041Z,9.40
2018-12-02T09:02:51.029Z,9.80
2018-12-02T09:03:51.011Z,9.60
2018-12-02T09:04:51.030Z,8.90
2018-12-02T09:05:51.003Z,10.30
2018-12-02T09:06:50.981Z,9.70
2018-12-02T09:07:50.981Z,10.40
2018-12-02T09:08:50.959Z,10.10
2018-12-02T09:09:50.995Z,9.80
2018-12-02T09:10:50.937Z,9.90
2018-12-02T09:11:50.921Z,10.10
2018-12-02T09:12:50.924Z,9.90
2018-12-02T09:13:50.905Z,9.90
2018-12-02T09:14:50.934Z,11.00
2018-12-02T09:15:50.883Z,10.20
2018-12-02T09:16:50.882Z,10.20
2018-12-02T09:17:50.861Z,9.60
2018-12-02T09:18:50.851Z,10.30
2018-12-02T09:19:50.867Z,10.10
2018-12-02T09:20:50.864Z,9.80
2018-12-02T09:21:50.821Z,9.70
2018-12-02T09:22:50.811Z,9.80
2018-12-02T09:23:50.798Z,10.20
2018-12-02T09:24:50.805Z,9.10
2018-12-02T09:25:52.290Z,9.90
2018-12-02T09:26:50.777Z,9.30
2018-12-02T09:27:50.757Z,9.50
2018-12-02T09:28:50.747Z,9.40
2018-12-02T09:29:50.785Z,9.50
2018-12-02T09:30:50.747Z,9.50
2018-12-02T09:31:50.722Z,9.40
2018-12-02T09:32:50.702Z,9.20
2018-12-02T09:33:50.697Z,9.90
2018-12-02T09:34:50.696Z,9.60
2018-12-02T09:35:50.672Z,9.60
2018-12-02T09:36:50.688Z,9.60
2018-12-02T09:37:50.668Z,9.40
2018-12-02T09:38:50.638Z,9.50
2018-12-02T09:39:50.643Z,9.40
2018-12-02T09:40:50.627Z,9.20
2018-12-02T09:41:51.003Z,9.20
2018-12-02T09:42:50.598Z,9.80
2018-12-02T09:43:50.584Z,9.10
2018-12-02T09:44:50.576Z,8.90
2018-12-02T09:45:50.580Z,9.30
2018-12-02T09:46:50.554Z,9.70
2018-12-02T09:47:50.593Z,9.60
2018-12-02T09:48:50.529Z,8.70
2018-12-02T09:49:50.528Z,9.10
2018-12-02T09:50:50.534Z,8.70
2018-12-02T09:51:50.502Z,8.90
2018-12-02T09:52:50.512Z,9.50
2018-12-02T09:53:50.481Z,9.10
2018-12-02T09:54:50.465Z,9.50
2018-12-02T09:55:50.451Z,8.40
2018-12-02T09:56:50.451Z,8.60
2018-12-02T09:57:50.462Z,9.50
2018-12-02T09:58:50.425Z,8.10
2018-12-02T09:59:50.408Z,7.90
2018-12-02T10:00:50.431Z,8.40
2018-12-02T10:01:50.390Z,8.20
2018-12-02T10:02:50.393Z,8.70
2018-12-02T10:03:50.421Z,8.40
2018-12-02T10:04:50.390Z,8.50
2018-12-02T10:05:50.354Z,8.70
2018-12-02T10:06:50.342Z,9.20
2018-12-02T10:07:50.324Z,8.90
2018-12-02T10:08:50.348Z,8.20
2018-12-02T10:09:50.323Z,8.60
2018-12-02T10:10:50.311Z,9.40
2018-12-02T10:11:50.291Z,8.70
2018-12-02T10:12:50.273Z,8.10
2018-12-02T10:13:50.310Z,8.80
2018-12-02T10:14:50.267Z,8.40
2018-12-02T10:15:50.264Z,8.30
2018-12-02T10:16:50.248Z,7.50
2018-12-02T10:17:50.222Z,8.50
2018-12-02T10:18:50.222Z,8.50
2018-12-02T10:19:50.200Z,8.30
2018-12-02T10:20:50.223Z,8.20
2018-12-02T10:21:50.180Z,8.10
2018-12-02T10:22:50.207Z,8.20
2018-12-02T10:23:50.156Z,8.10
2018-12-02T10:24:50.156Z,7.60
2018-12-02T10:25:50.158Z,8.10
2018-12-02T10:26:50.138Z,7.90
2018-12-02T10:27:50.121Z,7.80
2018-12-02T10:28:50.108Z,8.70
2018-12-02T10:29:50.111Z,8.10
2018-12-02T10:30:50.101Z,8.30
2018-12-02T10:31:50.079Z,7.30
2018-12-02T10:32:50.071Z,8.10
2018-12-02T10:33:50.063Z,7.80
2018-12-02T10:34:50.039Z,7.60
2018-12-02T10:35:50.058Z,8.60
2018-12-02T10:36:50.022Z,9.60
2018-12-02T10:37:50.017Z,8.10
2018-12-02T10:38:50.019Z,8.10
2018-12-02T10:39:50.014Z,7.80
2018-12-02T10:40:50.000Z,7.50
2018-12-02T10:41:49.969Z,8.10
2018-12-02T10:42:49.964Z,7.30
2018-12-02T10:43:49.946Z,7.90
2018-12-02T10:44:49.950Z,7.30
2018-12-02T10:45:49.970Z,7.30
2018-12-02T10:46:49.913Z,7.70
2018-12-02T10:47:49.908Z,7.20
2018-12-02T10:48:49.896Z,7.30
2018-12-02T10:49:49.891Z,7.20
2018-12-02T10:50:49.868Z,7.70
2018-12-02T10:51:49.913Z,7.40
2018-12-02T10:52:49.858Z,6.80
2018-12-02T10:53:49.843Z,7.10
2018-12-02T10:54:49.838Z,6.30
2018-12-02T10:55:49.816Z,7.80
2018-12-02T10:56:49.825Z,7.10
2018-12-02T10:57:49.808Z,7.60
2018-12-02T10:58:49.794Z,7.30
2018-12-02T10:59:49.775Z,7.10
2018-12-02T11:00:49.781Z,7.00
2018-12-02T11:01:49.754Z,7.30
2018-12-02T11:02:49.771Z,6.90
2018-12-02T11:03:49.738Z,6.80
2018-12-02T11:04:49.728Z,7.10
2018-12-02T11:05:49.712Z,8.00
2018-12-02T11:06:49.698Z,6.80
2018-12-02T11:07:49.708Z,5.90
2018-12-02T11:08:49.698Z,7.50
2018-12-02T11:09:49.670Z,6.90
2018-12-02T11:10:49.674Z,7.20
2018-12-02T11:11:49.649Z,7.10
2018-12-02T11:12:49.656Z,7.00
2018-12-02T11:13:49.635Z,6.80
2018-12-02T11:14:49.616Z,7.10
2018-12-02T11:15:49.607Z,7.50
2018-12-02T11:16:49.593Z,7.00
2018-12-02T11:17:49.611Z,6.80
2018-12-02T11:18:49.629Z,7.70
2018-12-02T11:19:49.575Z,7.10
2018-12-02T11:20:49.549Z,6.70
2018-12-02T11:21:49.550Z,6.90
2018-12-02T11:22:49.530Z,7.00
2018-12-02T11:23:49.536Z,7.40
2018-12-02T11:24:49.506Z,7.00
2018-12-02T11:25:49.510Z,7.00
2018-12-02T11:26:49.486Z,7.40
2018-12-02T11:27:49.473Z,7.40
2018-12-02T11:28:49.533Z,7.70
2018-12-02T11:29:49.452Z,7.60
2018-12-02T11:30:49.456Z,7.50
2018-12-02T11:31:49.442Z,7.20
2018-12-02T11:32:49.421Z,7.60
2018-12-02T11:33:49.463Z,7.00
2018-12-02T11:34:49.404Z,7.20
2018-12-02T11:35:49.394Z,6.60
2018-12-02T11:36:49.396Z,7.30
2018-12-02T11:37:49.370Z,7.00
2018-12-02T11:38:49.366Z,7.30
2018-12-02T11:39:49.370Z,7.50
2018-12-02T11:40:49.343Z,7.20
2018-12-02T11:41:49.323Z,7.30
2018-12-02T11:42:49.316Z,6.60
2018-12-02T11:43:49.301Z,7.10
2018-12-02T11:44:49.333Z,7.70
2018-12-02T11:45:49.287Z,7.30
2018-12-02T11:46:49.305Z,7.20
2018-12-02T11:47:49.275Z,7.70
2018-12-02T11:48:49.295Z,8.00
2018-12-02T11:49:49.238Z,7.40
2018-12-02T11:50:49.231Z,7.20
2018-12-02T11:51:49.250Z,7.20
2018-12-02T11:52:49.214Z,7.00
2018-12-02T11:53:49.218Z,7.20
2018-12-02T11:54:49.196Z,7.00
2018-12-02T11:55:49.202Z,6.80
2018-12-02T11:56:49.160Z,6.60
2018-12-02T11:57:49.157Z,6.90
2018-12-02T11:58:49.142Z,8.50
2018-12-02T11:59:49.135Z,7.10
2018-12-02T12:00:49.149Z,7.00
2018-12-02T12:01:49.115Z,7.00
2018-12-02T12:02:49.104Z,6.60
2018-12-02T12:04:50.244Z,5.70
2018-12-02T12:05:49.123Z,7.10
2018-12-02T12:06:49.057Z,7.10
2018-12-02T12:07:49.056Z,6.90
2018-12-02T12:08:49.037Z,6.60
2018-12-02T12:09:49.033Z,6.90
2018-12-02T12:10:49.055Z,6.60
2018-12-02T12:11:49.021Z,6.70
2018-12-02T12:12:48.995Z,6.10
2018-12-02T12:13:48.980Z,6.00
2018-12-02T12:14:48.983Z,5.90
2018-12-02T12:15:48.988Z,6.40
2018-12-02T12:16:48.958Z,6.80
2018-12-02T12:17:48.945Z,6.60
2018-12-02T12:18:48.929Z,6.10
2018-12-02T12:19:48.917Z,6.40
2018-12-02T12:20:48.937Z,6.30
2018-12-02T12:21:48.899Z,6.90
2018-12-02T12:22:48.929Z,6.40
2018-12-02T12:23:48.873Z,6.40
2018-12-02T12:24:48.867Z,6.30
2018-12-02T12:25:48.853Z,6.10
2018-12-02T12:26:48.861Z,6.40
2018-12-02T12:27:48.869Z,6.50
2018-12-02T12:28:48.837Z,6.90
2018-12-02T12:29:48.809Z,7.20
2018-12-02T12:30:48.800Z,6.50
2018-12-02T12:32:49.992Z,6.70
2018-12-02T12:33:48.969Z,7.10
2018-12-02T12:34:48.767Z,6.70
2018-12-02T12:35:48.758Z,6.70
2018-12-02T12:36:48.735Z,6.90
2018-12-02T12:37:48.741Z,7.20
2018-12-02T12:38:48.718Z,6.30
2018-12-02T12:39:48.713Z,6.30
2018-12-02T12:40:48.749Z,6.60
2018-12-02T12:41:48.683Z,7.10
2018-12-02T12:42:48.693Z,6.60
2018-12-02T12:43:48.665Z,6.60
2018-12-02T12:44:48.657Z,6.50
2018-12-02T12:45:48.693Z,7.00
2018-12-02T12:46:48.647Z,6.80
2018-12-02T12:47:48.661Z,6.70
2018-12-02T12:48:48.619Z,6.70
2018-12-02T12:49:48.601Z,7.10
2018-12-02T12:50:48.583Z,7.10
2018-12-02T12:51:48.585Z,7.20
2018-12-02T12:52:48.604Z,7.80
2018-12-02T12:53:48.557Z,7.90
2018-12-02T12:54:48.567Z,6.50
2018-12-02T12:55:51.053Z,7.30
2018-12-02T12:56:48.541Z,7.00
2018-12-02T12:57:48.531Z,7.70
2018-12-02T12:58:48.528Z,7.50
2018-12-02T12:59:48.493Z,7.90
2018-12-02T13:00:48.481Z,8.10
2018-12-02T13:01:48.482Z,7.20
2018-12-02T13:02:48.458Z,7.80
2018-12-02T13:03:48.595Z,7.80
2018-12-02T13:04:48.439Z,8.20